sensor_id;sensor_type;location;lat;lon;timestamp;temperature;humidity
61841;DHT22;47773;53.174;6.614;2024-02-16T00:00:40;12.30;99.90
61841;DHT22;47773;53.174;6.614;2024-02-16T00:03:09;12.20;99.90
61841;DHT22;47773;53.174;6.614;2024-02-16T00:05:35;12.20;99.90
61841;DHT22;47773;53.174;6.614;2024-02-16T00:08:02;12.20;99.90
61841;DHT22;47773;53.174;6.614;2024-02-16T00:10:28;12.20;99.90
61841;DHT22;47773;53.174;6.614;2024-02-16T00:12:54;12.20;99.90
61841;DHT22;47773;53.174;6.614;2024-02-16T00:15:20;12.20;99.90
61841;DHT22;47773;53.174;6.614;2024-02-16T00:17:45;12.20;99.90
61841;DHT22;47773;53.174;6.614;2024-02-16T00:20:11;12.10;99.90
61841;DHT22;47773;53.174;6.614;2024-02-16T00:22:40;12.10;99.90
61841;DHT22;47773;53.174;6.614;2024-02-16T00:25:06;12.10;99.90
61841;DHT22;47773;53.174;6.614;2024-02-16T00:27:32;12.20;99.90
61841;DHT22;47773;53.174;6.614;2024-02-16T00:29:58;12.10;99.90
61841;DHT22;47773;53.174;6.614;2024-02-16T00:32:23;12.10;99.90
61841;DHT22;47773;53.174;6.614;2024-02-16T00:34:57;12.10;99.90
61841;DHT22;47773;53.174;6.614;2024-02-16T00:37:22;12.10;99.90
61841;DHT22;47773;53.174;6.614;2024-02-16T00:39:48;12.00;99.90
61841;DHT22;47773;53.174;6.614;2024-02-16T00:42:13;12.00;99.90
61841;DHT22;47773;53.174;6.614;2024-02-16T00:44:39;12.00;99.90
61841;DHT22;47773;53.174;6.614;2024-02-16T00:47:05;12.00;99.90
61841;DHT22;47773;53.174;6.614;2024-02-16T00:49:32;12.00;99.90
61841;DHT22;47773;53.174;6.614;2024-02-16T00:51:57;12.00;99.90
61841;DHT22;47773;53.174;6.614;2024-02-16T00:54:23;12.00;99.90
61841;DHT22;47773;53.174;6.614;2024-02-16T00:56:49;12.00;99.90
61841;DHT22;47773;53.174;6.614;2024-02-16T00:59:14;12.00;99.90
61841;DHT22;47773;53.174;6.614;2024-02-16T01:01:40;12.00;99.90
61841;DHT22;47773;53.174;6.614;2024-02-16T01:04:05;11.90;99.90
61841;DHT22;47773;53.174;6.614;2024-02-16T01:06:32;11.90;99.90
61841;DHT22;47773;53.174;6.614;2024-02-16T01:08:58;11.90;99.90
61841;DHT22;47773;53.174;6.614;2024-02-16T01:11:24;11.90;99.90
61841;DHT22;47773;53.174;6.614;2024-02-16T01:13:50;11.90;99.90
61841;DHT22;47773;53.174;6.614;2024-02-16T01:16:15;11.90;99.90
61841;DHT22;47773;53.174;6.614;2024-02-16T01:18:44;11.90;99.90
61841;DHT22;47773;53.174;6.614;2024-02-16T01:21:10;11.90;99.90
61841;DHT22;47773;53.174;6.614;2024-02-16T01:23:36;11.80;99.90
61841;DHT22;47773;53.174;6.614;2024-02-16T01:26:02;11.90;99.90
61841;DHT22;47773;53.174;6.614;2024-02-16T01:28:27;11.80;99.90
61841;DHT22;47773;53.174;6.614;2024-02-16T01:30:53;11.80;99.90
61841;DHT22;47773;53.174;6.614;2024-02-16T01:33:22;11.80;99.90
61841;DHT22;47773;53.174;6.614;2024-02-16T01:35:47;11.80;99.90
61841;DHT22;47773;53.174;6.614;2024-02-16T01:38:13;11.80;99.90
61841;DHT22;47773;53.174;6.614;2024-02-16T01:40:39;11.70;99.90
61841;DHT22;47773;53.174;6.614;2024-02-16T01:43:05;11.70;99.90
61841;DHT22;47773;53.174;6.614;2024-02-16T01:45:30;11.70;99.90
61841;DHT22;47773;53.174;6.614;2024-02-16T01:47:56;11.70;99.90
61841;DHT22;47773;53.174;6.614;2024-02-16T01:50:22;11.70;99.90
61841;DHT22;47773;53.174;6.614;2024-02-16T01:52:49;11.60;99.90
61841;DHT22;47773;53.174;6.614;2024-02-16T01:55:15;11.70;99.90
61841;DHT22;47773;53.174;6.614;2024-02-16T01:57:46;11.60;99.90
61841;DHT22;47773;53.174;6.614;2024-02-16T02:00:12;11.60;99.90
61841;DHT22;47773;53.174;6.614;2024-02-16T02:02:41;11.60;99.90
61841;DHT22;47773;53.174;6.614;2024-02-16T02:05:08;11.60;99.90
61841;DHT22;47773;53.174;6.614;2024-02-16T02:07:34;11.60;99.90
61841;DHT22;47773;53.174;6.614;2024-02-16T02:10:00;11.60;99.90
61841;DHT22;47773;53.174;6.614;2024-02-16T02:12:26;11.60;99.90
61841;DHT22;47773;53.174;6.614;2024-02-16T02:14:51;11.60;99.90
61841;DHT22;47773;53.174;6.614;2024-02-16T02:17:18;11.60;99.90
61841;DHT22;47773;53.174;6.614;2024-02-16T02:19:45;11.60;99.90
61841;DHT22;47773;53.174;6.614;2024-02-16T02:22:18;11.60;99.90
61841;DHT22;47773;53.174;6.614;2024-02-16T02:24:45;11.60;99.90
61841;DHT22;47773;53.174;6.614;2024-02-16T02:27:12;11.60;99.90
61841;DHT22;47773;53.174;6.614;2024-02-16T02:29:39;11.60;99.90
61841;DHT22;47773;53.174;6.614;2024-02-16T02:32:05;11.50;99.90
61841;DHT22;47773;53.174;6.614;2024-02-16T02:34:31;11.50;99.90
61841;DHT22;47773;53.174;6.614;2024-02-16T02:36:56;11.50;99.90
61841;DHT22;47773;53.174;6.614;2024-02-16T02:39:23;11.50;99.90
61841;DHT22;47773;53.174;6.614;2024-02-16T02:41:48;11.50;99.90
61841;DHT22;47773;53.174;6.614;2024-02-16T02:44:14;11.50;99.90
61841;DHT22;47773;53.174;6.614;2024-02-16T02:46:40;11.50;99.90
61841;DHT22;47773;53.174;6.614;2024-02-16T02:49:05;11.50;99.90
61841;DHT22;47773;53.174;6.614;2024-02-16T02:51:31;11.50;99.90
61841;DHT22;47773;53.174;6.614;2024-02-16T02:53:57;11.50;99.90
61841;DHT22;47773;53.174;6.614;2024-02-16T02:56:22;11.40;99.90
61841;DHT22;47773;53.174;6.614;2024-02-16T02:58:48;11.50;99.90
61841;DHT22;47773;53.174;6.614;2024-02-16T03:01:14;11.50;99.90
61841;DHT22;47773;53.174;6.614;2024-02-16T03:03:40;11.50;99.90
61841;DHT22;47773;53.174;6.614;2024-02-16T03:06:06;11.40;99.90
61841;DHT22;47773;53.174;6.614;2024-02-16T03:08:33;11.40;99.90
61841;DHT22;47773;53.174;6.614;2024-02-16T03:10:58;11.40;99.90
61841;DHT22;47773;53.174;6.614;2024-02-16T03:13:26;11.40;99.90
61841;DHT22;47773;53.174;6.614;2024-02-16T03:15:52;11.40;99.90
61841;DHT22;47773;53.174;6.614;2024-02-16T03:18:18;11.40;99.90
61841;DHT22;47773;53.174;6.614;2024-02-16T03:20:45;11.40;99.90
61841;DHT22;47773;53.174;6.614;2024-02-16T03:23:13;11.40;99.90
61841;DHT22;47773;53.174;6.614;2024-02-16T03:25:39;11.40;99.90
61841;DHT22;47773;53.174;6.614;2024-02-16T03:28:05;11.40;99.90
61841;DHT22;47773;53.174;6.614;2024-02-16T03:30:31;11.40;99.90
61841;DHT22;47773;53.174;6.614;2024-02-16T03:32:56;11.40;99.90
61841;DHT22;47773;53.174;6.614;2024-02-16T03:35:22;11.40;99.90
61841;DHT22;47773;53.174;6.614;2024-02-16T03:37:48;11.40;99.90
61841;DHT22;47773;53.174;6.614;2024-02-16T03:40:13;11.40;99.90
61841;DHT22;47773;53.174;6.614;2024-02-16T03:42:39;11.40;99.90
61841;DHT22;47773;53.174;6.614;2024-02-16T03:45:07;11.40;99.90
61841;DHT22;47773;53.174;6.614;2024-02-16T03:47:33;11.40;99.90
61841;DHT22;47773;53.174;6.614;2024-02-16T03:49:58;11.40;99.90
61841;DHT22;47773;53.174;6.614;2024-02-16T03:52:24;11.40;99.90
61841;DHT22;47773;53.174;6.614;2024-02-16T03:54:50;11.40;99.90
61841;DHT22;47773;53.174;6.614;2024-02-16T03:57:17;11.40;99.90
61841;DHT22;47773;53.174;6.614;2024-02-16T03:59:43;11.40;99.90
61841;DHT22;47773;53.174;6.614;2024-02-16T04:02:09;11.30;99.90
61841;DHT22;47773;53.174;6.614;2024-02-16T04:04:35;11.30;99.90
61841;DHT22;47773;53.174;6.614;2024-02-16T04:07:01;11.30;99.90
61841;DHT22;47773;53.174;6.614;2024-02-16T04:09:27;11.20;99.90
61841;DHT22;47773;53.174;6.614;2024-02-16T04:11:52;11.20;99.90
61841;DHT22;47773;53.174;6.614;2024-02-16T04:14:18;11.20;99.90
61841;DHT22;47773;53.174;6.614;2024-02-16T04:16:44;11.10;99.90
61841;DHT22;47773;53.174;6.614;2024-02-16T04:19:10;11.20;99.90
61841;DHT22;47773;53.174;6.614;2024-02-16T04:21:35;11.20;99.90
61841;DHT22;47773;53.174;6.614;2024-02-16T04:24:02;11.20;99.90
61841;DHT22;47773;53.174;6.614;2024-02-16T04:26:28;11.20;99.90
61841;DHT22;47773;53.174;6.614;2024-02-16T04:28:54;11.20;99.90
61841;DHT22;47773;53.174;6.614;2024-02-16T04:31:20;11.10;99.90
61841;DHT22;47773;53.174;6.614;2024-02-16T04:33:45;11.20;99.90
61841;DHT22;47773;53.174;6.614;2024-02-16T04:36:11;11.20;99.90
61841;DHT22;47773;53.174;6.614;2024-02-16T04:38:36;11.10;99.90
61841;DHT22;47773;53.174;6.614;2024-02-16T04:41:04;11.10;99.90
61841;DHT22;47773;53.174;6.614;2024-02-16T04:43:30;11.10;99.90
61841;DHT22;47773;53.174;6.614;2024-02-16T04:45:56;11.10;99.90
61841;DHT22;47773;53.174;6.614;2024-02-16T04:48:21;11.10;99.90
61841;DHT22;47773;53.174;6.614;2024-02-16T04:50:47;11.20;99.90
61841;DHT22;47773;53.174;6.614;2024-02-16T04:53:13;11.10;99.90
61841;DHT22;47773;53.174;6.614;2024-02-16T04:55:38;11.10;99.90
61841;DHT22;47773;53.174;6.614;2024-02-16T04:58:04;11.10;99.90
61841;DHT22;47773;53.174;6.614;2024-02-16T05:00:36;11.10;99.90
61841;DHT22;47773;53.174;6.614;2024-02-16T05:03:02;11.10;99.90
61841;DHT22;47773;53.174;6.614;2024-02-16T05:05:28;11.10;99.90
61841;DHT22;47773;53.174;6.614;2024-02-16T05:07:54;11.20;99.90
61841;DHT22;47773;53.174;6.614;2024-02-16T05:10:19;11.10;99.90
61841;DHT22;47773;53.174;6.614;2024-02-16T05:12:45;11.10;99.90
61841;DHT22;47773;53.174;6.614;2024-02-16T05:15:11;11.10;99.90
61841;DHT22;47773;53.174;6.614;2024-02-16T05:17:40;11.10;99.90
61841;DHT22;47773;53.174;6.614;2024-02-16T05:20:10;11.10;99.90
61841;DHT22;47773;53.174;6.614;2024-02-16T05:22:44;11.20;99.90
61841;DHT22;47773;53.174;6.614;2024-02-16T05:25:12;11.10;99.90
61841;DHT22;47773;53.174;6.614;2024-02-16T05:27:38;11.10;99.90
61841;DHT22;47773;53.174;6.614;2024-02-16T05:30:04;11.10;99.90
61841;DHT22;47773;53.174;6.614;2024-02-16T05:32:34;11.10;99.90
61841;DHT22;47773;53.174;6.614;2024-02-16T05:35:00;11.10;99.90
61841;DHT22;47773;53.174;6.614;2024-02-16T05:37:30;11.10;99.90
61841;DHT22;47773;53.174;6.614;2024-02-16T05:39:57;11.10;99.90
61841;DHT22;47773;53.174;6.614;2024-02-16T05:42:43;11.00;99.90
61841;DHT22;47773;53.174;6.614;2024-02-16T05:45:09;11.00;99.90
61841;DHT22;47773;53.174;6.614;2024-02-16T05:47:36;11.00;99.90
61841;DHT22;47773;53.174;6.614;2024-02-16T05:50:04;11.10;99.90
61841;DHT22;47773;53.174;6.614;2024-02-16T05:52:30;11.10;99.90
61841;DHT22;47773;53.174;6.614;2024-02-16T05:54:56;11.10;99.90
61841;DHT22;47773;53.174;6.614;2024-02-16T05:57:22;11.00;99.90
61841;DHT22;47773;53.174;6.614;2024-02-16T05:59:49;11.00;99.90
61841;DHT22;47773;53.174;6.614;2024-02-16T06:02:14;11.00;99.90
61841;DHT22;47773;53.174;6.614;2024-02-16T06:04:41;11.00;99.90
61841;DHT22;47773;53.174;6.614;2024-02-16T06:07:07;11.00;99.90
61841;DHT22;47773;53.174;6.614;2024-02-16T06:09:33;11.00;99.90
61841;DHT22;47773;53.174;6.614;2024-02-16T06:12:04;11.00;99.90
61841;DHT22;47773;53.174;6.614;2024-02-16T06:14:31;11.00;99.90
61841;DHT22;47773;53.174;6.614;2024-02-16T06:16:56;11.00;99.90
61841;DHT22;47773;53.174;6.614;2024-02-16T06:19:22;11.10;99.90
61841;DHT22;47773;53.174;6.614;2024-02-16T06:21:48;11.10;99.90
61841;DHT22;47773;53.174;6.614;2024-02-16T06:24:13;11.00;99.90
61841;DHT22;47773;53.174;6.614;2024-02-16T06:26:39;11.00;99.90
61841;DHT22;47773;53.174;6.614;2024-02-16T06:29:04;11.10;99.90
61841;DHT22;47773;53.174;6.614;2024-02-16T06:31:30;11.10;99.90
61841;DHT22;47773;53.174;6.614;2024-02-16T06:33:56;11.10;99.90
61841;DHT22;47773;53.174;6.614;2024-02-16T06:36:22;11.00;99.90
61841;DHT22;47773;53.174;6.614;2024-02-16T06:38:48;11.00;99.90
61841;DHT22;47773;53.174;6.614;2024-02-16T06:41:13;11.00;99.90
61841;DHT22;47773;53.174;6.614;2024-02-16T06:43:39;11.00;99.90
61841;DHT22;47773;53.174;6.614;2024-02-16T06:46:05;11.00;99.90
61841;DHT22;47773;53.174;6.614;2024-02-16T06:48:31;11.00;99.90
61841;DHT22;47773;53.174;6.614;2024-02-16T06:50:57;11.00;99.90
61841;DHT22;47773;53.174;6.614;2024-02-16T06:53:22;11.00;99.90
61841;DHT22;47773;53.174;6.614;2024-02-16T06:55:48;11.00;99.90
61841;DHT22;47773;53.174;6.614;2024-02-16T06:58:14;11.00;99.90
61841;DHT22;47773;53.174;6.614;2024-02-16T07:00:39;11.00;99.90
61841;DHT22;47773;53.174;6.614;2024-02-16T07:03:07;11.00;99.90
61841;DHT22;47773;53.174;6.614;2024-02-16T07:05:34;11.10;99.90
61841;DHT22;47773;53.174;6.614;2024-02-16T07:08:00;11.10;99.90
61841;DHT22;47773;53.174;6.614;2024-02-16T07:10:25;11.10;99.90
61841;DHT22;47773;53.174;6.614;2024-02-16T07:12:51;11.10;99.90
61841;DHT22;47773;53.174;6.614;2024-02-16T07:15:17;11.10;99.90
61841;DHT22;47773;53.174;6.614;2024-02-16T07:17:42;11.20;99.90
61841;DHT22;47773;53.174;6.614;2024-02-16T07:20:08;11.20;99.90
61841;DHT22;47773;53.174;6.614;2024-02-16T07:22:34;11.20;99.90
61841;DHT22;47773;53.174;6.614;2024-02-16T07:25:00;11.20;99.90
61841;DHT22;47773;53.174;6.614;2024-02-16T07:27:26;11.20;99.90
61841;DHT22;47773;53.174;6.614;2024-02-16T07:29:51;11.20;99.90
61841;DHT22;47773;53.174;6.614;2024-02-16T07:32:17;11.30;99.90
61841;DHT22;47773;53.174;6.614;2024-02-16T07:34:47;11.30;99.90
61841;DHT22;47773;53.174;6.614;2024-02-16T07:37:15;11.30;99.90
61841;DHT22;47773;53.174;6.614;2024-02-16T07:39:41;11.40;99.90
61841;DHT22;47773;53.174;6.614;2024-02-16T07:42:07;11.40;99.90
61841;DHT22;47773;53.174;6.614;2024-02-16T07:44:38;11.40;99.90
61841;DHT22;47773;53.174;6.614;2024-02-16T07:47:04;11.50;99.90
61841;DHT22;47773;53.174;6.614;2024-02-16T07:49:30;11.40;99.90
61841;DHT22;47773;53.174;6.614;2024-02-16T07:51:55;11.40;99.90
61841;DHT22;47773;53.174;6.614;2024-02-16T07:54:21;11.40;99.90
61841;DHT22;47773;53.174;6.614;2024-02-16T07:56:47;11.50;99.90
61841;DHT22;47773;53.174;6.614;2024-02-16T07:59:12;11.50;99.90
61841;DHT22;47773;53.174;6.614;2024-02-16T08:01:38;11.50;99.90
61841;DHT22;47773;53.174;6.614;2024-02-16T08:04:04;11.50;99.90
61841;DHT22;47773;53.174;6.614;2024-02-16T08:06:30;11.50;99.90
61841;DHT22;47773;53.174;6.614;2024-02-16T08:08:55;11.50;99.90
61841;DHT22;47773;53.174;6.614;2024-02-16T08:11:22;11.50;99.90
61841;DHT22;47773;53.174;6.614;2024-02-16T08:13:48;11.60;99.90
61841;DHT22;47773;53.174;6.614;2024-02-16T08:16:13;11.60;99.90
61841;DHT22;47773;53.174;6.614;2024-02-16T08:18:39;11.60;99.90
61841;DHT22;47773;53.174;6.614;2024-02-16T08:21:05;11.60;99.90
61841;DHT22;47773;53.174;6.614;2024-02-16T08:23:30;11.60;99.90
61841;DHT22;47773;53.174;6.614;2024-02-16T08:25:56;11.70;99.90
61841;DHT22;47773;53.174;6.614;2024-02-16T08:28:23;11.70;99.90
61841;DHT22;47773;53.174;6.614;2024-02-16T08:30:49;11.70;99.90
61841;DHT22;47773;53.174;6.614;2024-02-16T08:33:14;11.70;99.90
61841;DHT22;47773;53.174;6.614;2024-02-16T08:35:40;11.70;99.90
61841;DHT22;47773;53.174;6.614;2024-02-16T08:38:05;11.70;99.90
61841;DHT22;47773;53.174;6.614;2024-02-16T08:40:36;11.70;99.90
61841;DHT22;47773;53.174;6.614;2024-02-16T08:43:02;11.70;99.90
61841;DHT22;47773;53.174;6.614;2024-02-16T08:45:28;11.80;99.90
61841;DHT22;47773;53.174;6.614;2024-02-16T08:47:54;11.80;99.90
61841;DHT22;47773;53.174;6.614;2024-02-16T08:50:22;11.80;99.90
61841;DHT22;47773;53.174;6.614;2024-02-16T08:52:47;11.80;99.90
61841;DHT22;47773;53.174;6.614;2024-02-16T08:55:13;11.80;99.90
61841;DHT22;47773;53.174;6.614;2024-02-16T08:57:39;11.80;99.90
61841;DHT22;47773;53.174;6.614;2024-02-16T09:00:05;11.80;99.90
61841;DHT22;47773;53.174;6.614;2024-02-16T09:02:30;11.90;99.90
61841;DHT22;47773;53.174;6.614;2024-02-16T09:04:56;11.90;99.90
61841;DHT22;47773;53.174;6.614;2024-02-16T09:07:22;11.80;99.90
61841;DHT22;47773;53.174;6.614;2024-02-16T09:09:48;11.90;99.90
61841;DHT22;47773;53.174;6.614;2024-02-16T09:12:13;11.90;99.90
61841;DHT22;47773;53.174;6.614;2024-02-16T09:14:39;11.90;99.90
61841;DHT22;47773;53.174;6.614;2024-02-16T09:17:05;11.90;99.90
61841;DHT22;47773;53.174;6.614;2024-02-16T09:19:30;12.00;99.90
61841;DHT22;47773;53.174;6.614;2024-02-16T09:21:56;12.00;99.90
61841;DHT22;47773;53.174;6.614;2024-02-16T09:24:23;12.00;99.90
61841;DHT22;47773;53.174;6.614;2024-02-16T09:26:53;12.10;99.90
61841;DHT22;47773;53.174;6.614;2024-02-16T09:29:19;12.10;99.90
61841;DHT22;47773;53.174;6.614;2024-02-16T09:31:45;12.20;99.90
61841;DHT22;47773;53.174;6.614;2024-02-16T09:34:14;12.20;99.90
61841;DHT22;47773;53.174;6.614;2024-02-16T09:36:39;12.30;99.90
61841;DHT22;47773;53.174;6.614;2024-02-16T09:39:05;12.30;99.90
61841;DHT22;47773;53.174;6.614;2024-02-16T09:41:34;12.40;99.90
61841;DHT22;47773;53.174;6.614;2024-02-16T09:44:03;12.50;99.90
61841;DHT22;47773;53.174;6.614;2024-02-16T09:46:30;12.60;99.90
61841;DHT22;47773;53.174;6.614;2024-02-16T09:49:01;12.60;99.90
61841;DHT22;47773;53.174;6.614;2024-02-16T09:51:28;12.70;99.90
61841;DHT22;47773;53.174;6.614;2024-02-16T09:53:53;12.80;99.90
61841;DHT22;47773;53.174;6.614;2024-02-16T09:56:22;12.90;99.90
61841;DHT22;47773;53.174;6.614;2024-02-16T09:58:51;12.90;99.90
61841;DHT22;47773;53.174;6.614;2024-02-16T10:01:18;13.00;99.90
61841;DHT22;47773;53.174;6.614;2024-02-16T10:03:48;13.10;99.90
61841;DHT22;47773;53.174;6.614;2024-02-16T10:06:15;13.20;99.90
61841;DHT22;47773;53.174;6.614;2024-02-16T10:08:56;13.30;99.90
61841;DHT22;47773;53.174;6.614;2024-02-16T10:11:26;13.30;99.90
61841;DHT22;47773;53.174;6.614;2024-02-16T10:14:03;13.40;99.90
61841;DHT22;47773;53.174;6.614;2024-02-16T10:16:30;13.40;99.90
61841;DHT22;47773;53.174;6.614;2024-02-16T10:19:03;13.50;99.90
61841;DHT22;47773;53.174;6.614;2024-02-16T10:21:30;13.50;99.90
61841;DHT22;47773;53.174;6.614;2024-02-16T10:24:06;13.50;99.90
61841;DHT22;47773;53.174;6.614;2024-02-16T10:26:34;13.70;99.90
61841;DHT22;47773;53.174;6.614;2024-02-16T10:29:09;13.70;99.90
61841;DHT22;47773;53.174;6.614;2024-02-16T10:31:35;13.80;99.90
61841;DHT22;47773;53.174;6.614;2024-02-16T10:34:05;13.90;99.90
61841;DHT22;47773;53.174;6.614;2024-02-16T10:36:35;14.00;99.90
61841;DHT22;47773;53.174;6.614;2024-02-16T10:39:02;14.00;99.90
61841;DHT22;47773;53.174;6.614;2024-02-16T10:41:38;13.90;99.90
61841;DHT22;47773;53.174;6.614;2024-02-16T10:44:04;13.90;99.90
61841;DHT22;47773;53.174;6.614;2024-02-16T10:46:31;13.80;99.90
61841;DHT22;47773;53.174;6.614;2024-02-16T10:48:57;13.80;99.90
61841;DHT22;47773;53.174;6.614;2024-02-16T10:51:36;13.70;99.90
61841;DHT22;47773;53.174;6.614;2024-02-16T10:54:04;13.70;99.90
61841;DHT22;47773;53.174;6.614;2024-02-16T10:56:36;13.70;99.90
61841;DHT22;47773;53.174;6.614;2024-02-16T10:59:03;13.60;99.90
61841;DHT22;47773;53.174;6.614;2024-02-16T11:01:39;13.60;99.90
61841;DHT22;47773;53.174;6.614;2024-02-16T11:04:07;13.50;99.90
61841;DHT22;47773;53.174;6.614;2024-02-16T11:06:49;13.40;99.90
61841;DHT22;47773;53.174;6.614;2024-02-16T11:09:26;13.30;99.90
61841;DHT22;47773;53.174;6.614;2024-02-16T11:12:00;13.30;99.90
61841;DHT22;47773;53.174;6.614;2024-02-16T11:14:42;13.10;99.90
61841;DHT22;47773;53.174;6.614;2024-02-16T11:17:20;13.10;99.90
61841;DHT22;47773;53.174;6.614;2024-02-16T11:19:46;13.00;99.90
61841;DHT22;47773;53.174;6.614;2024-02-16T11:22:19;13.00;99.90
61841;DHT22;47773;53.174;6.614;2024-02-16T11:24:46;12.90;99.90
61841;DHT22;47773;53.174;6.614;2024-02-16T11:27:13;12.90;99.90
61841;DHT22;47773;53.174;6.614;2024-02-16T11:29:41;12.90;99.90
61841;DHT22;47773;53.174;6.614;2024-02-16T11:32:07;12.80;99.90
61841;DHT22;47773;53.174;6.614;2024-02-16T11:34:33;12.70;99.90
61841;DHT22;47773;53.174;6.614;2024-02-16T11:37:03;12.70;99.90
61841;DHT22;47773;53.174;6.614;2024-02-16T11:39:30;12.60;99.90
61841;DHT22;47773;53.174;6.614;2024-02-16T11:42:04;12.50;99.90
61841;DHT22;47773;53.174;6.614;2024-02-16T11:44:34;12.40;99.90
61841;DHT22;47773;53.174;6.614;2024-02-16T11:47:01;12.30;99.90
61841;DHT22;47773;53.174;6.614;2024-02-16T11:49:31;12.30;99.90
61841;DHT22;47773;53.174;6.614;2024-02-16T11:51:59;12.20;99.90
61841;DHT22;47773;53.174;6.614;2024-02-16T11:54:25;12.10;99.90
61841;DHT22;47773;53.174;6.614;2024-02-16T11:56:51;12.10;99.90
61841;DHT22;47773;53.174;6.614;2024-02-16T11:59:18;12.00;99.90
61841;DHT22;47773;53.174;6.614;2024-02-16T12:01:57;12.00;99.90
61841;DHT22;47773;53.174;6.614;2024-02-16T12:04:24;11.90;99.90
61841;DHT22;47773;53.174;6.614;2024-02-16T12:06:52;11.90;99.90
61841;DHT22;47773;53.174;6.614;2024-02-16T12:09:18;11.80;99.90
61841;DHT22;47773;53.174;6.614;2024-02-16T12:11:44;11.80;99.90
61841;DHT22;47773;53.174;6.614;2024-02-16T12:14:10;11.80;99.90
61841;DHT22;47773;53.174;6.614;2024-02-16T12:16:37;11.70;99.90
61841;DHT22;47773;53.174;6.614;2024-02-16T12:19:05;11.80;99.90
61841;DHT22;47773;53.174;6.614;2024-02-16T12:21:31;11.80;99.90
61841;DHT22;47773;53.174;6.614;2024-02-16T12:23:57;11.80;99.90
61841;DHT22;47773;53.174;6.614;2024-02-16T12:26:22;11.80;99.90
61841;DHT22;47773;53.174;6.614;2024-02-16T12:28:49;11.80;99.90
61841;DHT22;47773;53.174;6.614;2024-02-16T12:31:24;11.80;99.90
61841;DHT22;47773;53.174;6.614;2024-02-16T12:33:52;11.80;99.90
61841;DHT22;47773;53.174;6.614;2024-02-16T12:36:17;11.90;99.90
61841;DHT22;47773;53.174;6.614;2024-02-16T12:38:43;11.90;99.90
61841;DHT22;47773;53.174;6.614;2024-02-16T12:41:09;11.90;99.90
61841;DHT22;47773;53.174;6.614;2024-02-16T12:43:35;11.90;99.90
61841;DHT22;47773;53.174;6.614;2024-02-16T12:46:01;11.80;99.90
61841;DHT22;47773;53.174;6.614;2024-02-16T12:48:29;11.90;99.90
61841;DHT22;47773;53.174;6.614;2024-02-16T12:50:55;11.90;99.90
61841;DHT22;47773;53.174;6.614;2024-02-16T12:53:22;11.80;99.90
61841;DHT22;47773;53.174;6.614;2024-02-16T12:55:50;11.90;99.90
61841;DHT22;47773;53.174;6.614;2024-02-16T12:58:16;11.90;99.90
61841;DHT22;47773;53.174;6.614;2024-02-16T13:00:41;11.80;99.90
61841;DHT22;47773;53.174;6.614;2024-02-16T13:03:07;11.80;99.90
61841;DHT22;47773;53.174;6.614;2024-02-16T13:05:33;11.80;99.90
61841;DHT22;47773;53.174;6.614;2024-02-16T13:07:59;11.90;99.90
61841;DHT22;47773;53.174;6.614;2024-02-16T13:10:25;11.80;99.90
61841;DHT22;47773;53.174;6.614;2024-02-16T13:12:51;11.90;99.90
61841;DHT22;47773;53.174;6.614;2024-02-16T13:15:16;11.90;99.90
61841;DHT22;47773;53.174;6.614;2024-02-16T13:17:42;11.90;99.90
61841;DHT22;47773;53.174;6.614;2024-02-16T13:20:08;11.90;99.90
61841;DHT22;47773;53.174;6.614;2024-02-16T13:22:37;11.90;99.90
61841;DHT22;47773;53.174;6.614;2024-02-16T13:25:04;11.80;99.90
61841;DHT22;47773;53.174;6.614;2024-02-16T13:27:30;11.80;99.90
61841;DHT22;47773;53.174;6.614;2024-02-16T13:29:55;11.90;99.90
61841;DHT22;47773;53.174;6.614;2024-02-16T13:32:21;11.90;99.90
61841;DHT22;47773;53.174;6.614;2024-02-16T13:34:48;11.90;99.90
61841;DHT22;47773;53.174;6.614;2024-02-16T13:37:13;11.90;99.90
61841;DHT22;47773;53.174;6.614;2024-02-16T13:39:39;11.90;99.90
61841;DHT22;47773;53.174;6.614;2024-02-16T13:42:05;11.90;99.90
61841;DHT22;47773;53.174;6.614;2024-02-16T13:44:31;11.90;99.90
61841;DHT22;47773;53.174;6.614;2024-02-16T13:46:57;11.90;99.90
61841;DHT22;47773;53.174;6.614;2024-02-16T13:49:22;11.90;99.90
61841;DHT22;47773;53.174;6.614;2024-02-16T13:51:48;11.90;99.90
61841;DHT22;47773;53.174;6.614;2024-02-16T13:54:14;11.80;99.90
61841;DHT22;47773;53.174;6.614;2024-02-16T13:56:40;11.80;99.90
61841;DHT22;47773;53.174;6.614;2024-02-16T13:59:06;11.80;99.90
61841;DHT22;47773;53.174;6.614;2024-02-16T14:01:35;11.80;99.90
61841;DHT22;47773;53.174;6.614;2024-02-16T14:04:02;11.80;99.90
61841;DHT22;47773;53.174;6.614;2024-02-16T14:06:29;11.80;99.90
61841;DHT22;47773;53.174;6.614;2024-02-16T14:08:56;11.80;99.90
61841;DHT22;47773;53.174;6.614;2024-02-16T14:11:23;11.80;99.90
61841;DHT22;47773;53.174;6.614;2024-02-16T14:13:49;11.80;99.90
61841;DHT22;47773;53.174;6.614;2024-02-16T14:16:14;11.80;99.90
61841;DHT22;47773;53.174;6.614;2024-02-16T14:18:40;11.80;99.90
61841;DHT22;47773;53.174;6.614;2024-02-16T14:21:06;11.70;99.90
61841;DHT22;47773;53.174;6.614;2024-02-16T14:23:32;11.80;99.90
61841;DHT22;47773;53.174;6.614;2024-02-16T14:25:58;11.80;99.90
61841;DHT22;47773;53.174;6.614;2024-02-16T14:28:24;11.70;99.90
61841;DHT22;47773;53.174;6.614;2024-02-16T14:30:50;11.70;99.90
61841;DHT22;47773;53.174;6.614;2024-02-16T14:33:18;11.70;99.90
61841;DHT22;47773;53.174;6.614;2024-02-16T14:35:44;11.70;99.90
61841;DHT22;47773;53.174;6.614;2024-02-16T14:38:11;11.70;99.90
61841;DHT22;47773;53.174;6.614;2024-02-16T14:40:38;11.70;99.90
61841;DHT22;47773;53.174;6.614;2024-02-16T14:43:04;11.70;99.90
61841;DHT22;47773;53.174;6.614;2024-02-16T14:45:29;11.70;99.90
61841;DHT22;47773;53.174;6.614;2024-02-16T14:47:55;11.80;99.90
61841;DHT22;47773;53.174;6.614;2024-02-16T14:50:22;11.80;99.90
61841;DHT22;47773;53.174;6.614;2024-02-16T14:52:47;11.80;99.90
61841;DHT22;47773;53.174;6.614;2024-02-16T14:55:13;11.80;99.90
61841;DHT22;47773;53.174;6.614;2024-02-16T14:57:40;11.90;99.90
61841;DHT22;47773;53.174;6.614;2024-02-16T15:00:08;11.90;99.90
61841;DHT22;47773;53.174;6.614;2024-02-16T15:02:34;11.90;99.90
61841;DHT22;47773;53.174;6.614;2024-02-16T15:04:59;11.90;99.90
61841;DHT22;47773;53.174;6.614;2024-02-16T15:07:25;11.90;99.90
61841;DHT22;47773;53.174;6.614;2024-02-16T15:09:51;11.90;99.90
61841;DHT22;47773;53.174;6.614;2024-02-16T15:12:17;11.90;99.90
61841;DHT22;47773;53.174;6.614;2024-02-16T15:14:47;12.00;99.90
61841;DHT22;47773;53.174;6.614;2024-02-16T15:17:14;12.00;99.90
61841;DHT22;47773;53.174;6.614;2024-02-16T15:19:40;12.00;99.90
61841;DHT22;47773;53.174;6.614;2024-02-16T15:22:06;12.00;99.90
61841;DHT22;47773;53.174;6.614;2024-02-16T15:24:32;12.00;99.90
61841;DHT22;47773;53.174;6.614;2024-02-16T15:26:57;12.10;99.90